Indira Gandhi International Airport (DEL/VIDP)




Flight Aircraft Arriving
CPX559 B744
B77L
WSSS - Changi International Airport
Singapore Singapore, Singapore
CPX565 B744
B77L
VHHH - Chek Lap Kok International
Hong Kong Hong Kong, Hong Kong
Flight Aircraft Departing
CPX569 B744
B77L
EBLG - Liège Airport
Belgium Liege, Belgium
Airport Information
Location: New Delhi, IN
Coordinates: 28.5687 / 77.1121
Elevation:
Time Offset:
Local Time:
UTC Time:
Jet A Price: $/lbs

Current Weather
METAR: VIDP 051400Z 10003KT 2100 FU NSC 19/13 Q1013 NOSIG
TAF: TAF VIDP 051100Z 0512/0521 11005KT 2000 FU NSC BECMG 0518/0520 00000KT 1200 BR

Recent Arrivals
Date Flight Type Depart
10/12/2020 CPX569 B744 Liège Airport (EBLG)
11/10/2019 CPX769 B744 Liège Airport (EBLG)
04/12/2019 CPX769 B744 Liège Airport (EBLG)
Recent Departures
Date Flight Type Arrive
10/16/2020 CPX559 B744 Changi International Airport (WSSS)
11/11/2019 CPX759 B744 Changi International Airport (WSSS)
04/17/2019 CPX765 B744 Chek Lap Kok International (VHHH)